Latest Weather Observations for Swan Hill

IDV60801

Issued at 8:02 am EST Saturday 24 August 2019 (issued every 10 minutes, with the page automatically refreshed every 10 minutes)

About weather observations | Map of weather stations | Latest weather observations for VIC | Other Formats
Station Details ID: 077094 Name: SWAN HILL AERODROME Lat: -35.38 Lon: 143.54 Height: 71.0 m
Data from the previous 72 hours. | See also: Recent months at Swan Hill
Date/Time
EST
Temp
°C
App
Temp
°C
Dew
Point
°C
Rel
Hum
%
Delta-T
°C
Wind Press
QNH
hPa
Press
MSL
hPa
Rain since
9am
mm
Dir  Spd
km/h
Gust
km/h
Spd
kts
Gust
kts
24/08:00am 7.2 1.9 -0.5 58 3.0 N 17 20 9 11 1018.3 1018.3 0.0
24/07:30am 5.6 0.6 -1.1 62 2.5 NNE 15 19 8 10 1018.2 1018.2 0.0
24/07:00am 4.2 -0.1 -1.4 67 2.0 N 11 15 6 8 1018.4 1018.4 0.0
24/06:30am 5.0 0.4 -1.4 63 2.4 N 13 15 7 8 1018.4 1018.4 0.0
24/06:00am 4.6 0.3 -1.4 65 2.2 NNE 11 13 6 7 1018.2 1018.2 0.0
24/05:30am 4.4 0.1 -1.4 66 2.1 NNE 11 13 6 7 1018.4 1018.4 0.0
24/05:00am 4.3 -0.3 -1.3 67 2.0 NNE 13 15 7 8 1018.5 1018.5 0.0
24/04:30am 4.1 -0.1 -0.9 70 1.8 NNE 11 15 6 8 1018.8 1018.8 0.0
24/04:00am 3.0 -0.8 -0.6 77 1.3 NE 9 11 5 6 1019.1 1019.2 0.0
24/03:30am 1.6 -2.6 -0.8 84 0.9 NE 11 13 6 7 1019.1 1019.2 0.0
24/03:00am 1.0 -2.4 -1.9 81 1.0 NE 6 9 3 5 1019.4 1019.5 0.0
24/02:30am 1.6 -1.4 -1.5 80 1.1 NE 4 6 2 3 1019.7 1019.8 0.0
24/02:00am 1.7 -1.8 -1.7 78 1.2 NE 7 9 4 5 1019.8 1019.9 0.0
24/01:30am 2.5 -1.0 -1.7 74 1.5 NE 7 7 4 4 1020.0 1020.1 0.0
24/01:00am 3.1 -0.7 -0.7 76 1.4 NE 9 9 5 5 1020.0 1020.1 0.0
24/12:30am 3.4 0.6 -0.4 76 1.4 NE 4 7 2 4 1020.2 1020.3 0.0
24/12:00am 4.8 0.8 0.2 72 1.8 NE 11 13 6 7 1020.2 1020.3 0.0
 
Date/Time
EST
Temp
°C
App
Temp
°C
Dew
Point
°C
Rel
Hum
%
Delta-T
°C
Wind Press
QNH
hPa
Press
MSL
hPa
Rain since
9am
mm
Dir  Spd
km/h
Gust
km/h
Spd
kts
Gust
kts
23/11:30pm 4.6 0.6 0.4 74 1.6 NE 11 13 6 7 1020.4 1020.5 0.0
23/11:00pm 5.9 1.9 0.7 69 2.0 NE 11 11 6 6 1020.9 1021.0 0.0
23/10:30pm 4.7 1.0 -0.1 71 1.8 NE 9 11 5 6 1021.1 1021.2 0.0
23/10:00pm 5.2 1.0 1.5 77 1.5 NE 13 13 7 7 1021.3 1021.4 0.0
23/09:30pm 4.6 1.6 0.7 76 1.5 NE 6 7 3 4 1021.7 1021.8 0.0
23/09:00pm 5.3 2.1 0.9 73 1.7 NE 7 9 4 5 1021.8 1021.9 0.0
23/08:30pm 7.6 5.6 2.1 68 2.3 NE 2 9 1 5 1022.0 1022.1 0.0
23/08:00pm 9.5 6.1 2.1 60 3.1 NE 9 11 5 6 1021.8 1021.9 0.0
23/07:30pm 9.8 6.1 2.6 61 3.1 NE 11 13 6 7 1021.6 1021.7 0.0
23/07:00pm 10.2 6.6 3.0 61 3.1 NE 11 15 6 8 1021.5 1021.6 0.0
23/06:30pm 11.1 7.5 2.9 57 3.6 NNE 11 13 6 7 1021.7 1021.8 0.0
23/06:00pm 13.0 9.8 3.1 51 4.4 N 9 13 5 7 1022.0 1022.1 0.0
23/05:30pm 13.7 9.9 3.8 51 4.5 N 13 15 7 8 1022.0 1022.1 0.0
23/05:00pm 15.4 11.5 3.5 45 5.4 NNW 13 17 7 9 1022.1 1022.2 0.0
23/04:30pm 16.1 12.2 3.5 43 5.8 NNW 13 19 7 10 1022.1 1022.2 0.0
23/04:00pm 16.5 12.8 2.5 39 6.3 NW 11 19 6 10 1022.2 1022.3 0.0
23/03:30pm 16.6 12.7 3.3 41 6.1 NNW 13 17 7 9 1022.5 1022.6 0.0
23/03:00pm 16.3 12.5 3.7 43 5.8 N 13 20 7 11 1022.7 1022.8 0.0
23/02:30pm 16.3 13.0 4.4 45 5.6 NNW 11 20 6 11 1023.1 1023.2 0.0
23/02:00pm 15.9 12.4 3.4 43 5.7 NNW 11 19 6 10 1023.4 1023.5 0.0
23/01:30pm 15.1 11.2 3.3 45 5.4 NNW 13 19 7 10 1023.9 1024.0 0.0
23/01:00pm 14.5 10.5 3.0 46 5.1 NNW 13 17 7 9 1024.3 1024.4 0.0
23/12:30pm 14.5 10.6 3.6 48 5.0 N 13 22 7 12 1025.0 1025.1 0.0
23/12:00pm 13.8 10.7 3.6 50 4.6 NNW 9 17 5 9 1025.5 1025.6 0.0
23/11:30am 12.9 9.4 3.6 53 4.2 N 11 17 6 9 1026.0 1026.1 0.0
23/11:00am 12.6 9.2 3.8 55 3.9 NNE 11 17 6 9 1026.7 1026.8 0.0
23/10:30am 11.8 8.0 3.8 58 3.6 NNE 13 20 7 11 1027.0 1027.1 0.0
23/10:00am 11.0 7.3 4.2 63 3.0 NNE 13 20 7 11 1027.3 1027.4 0.0
23/09:30am 9.2 6.7 4.8 74 2.0 S 7 9 4 5 1027.5 1027.6 0.0
23/09:00am 6.8 4.5 4.6 86 1.0 S 6 7 3 4 1027.3 1027.4 0.0
23/08:30am 3.2 1.5 2.0 92 0.5 CALM 0 0 0 0 1027.5 1027.6 0.0
23/08:00am 0.7 -1.3 -0.4 92 0.4 CALM 0 0 0 0 1027.3 1027.4 0.0
23/07:30am -1.0 -3.3 -2.1 92 0.3 CALM 0 0 0 0 1026.9 1027.0 0.0
23/07:00am -1.7 -5.2 -3.0 91 0.4 S 6 6 3 3 1026.6 1026.7 0.0
23/06:30am -1.6 -4.0 -2.9 91 0.4 CALM 0 0 0 0 1026.4 1026.5 0.0
23/06:00am -1.1 -3.4 -2.4 91 0.4 CALM 0 0 0 0 1026.1 1026.2 0.0
23/05:30am -1.3 -3.6 -2.6 91 0.4 CALM 0 0 0 0 1026.2 1026.3 0.0
23/05:00am -1.2 -4.3 -2.6 90 0.4 S 4 7 2 4 1026.1 1026.2 0.0
23/04:30am -0.5 -2.7 -1.8 91 0.4 CALM 0 0 0 0 1026.1 1026.2 0.0
23/04:00am -0.9 -3.2 -2.3 90 0.4 CALM 0 6 0 3 1026.2 1026.3 0.0
23/03:30am -0.4 -3.8 -1.8 90 0.5 S 6 7 3 4 1026.1 1026.2 0.0
23/03:00am -0.1 -2.3 -1.7 89 0.5 CALM 0 0 0 0 1026.4 1026.5 0.0
23/02:30am 0.3 -1.9 -1.4 88 0.6 CALM 0 0 0 0 1026.4 1026.5 0.0
23/02:00am 1.1 -1.0 -0.5 89 0.6 CALM 0 0 0 0 1026.5 1026.6 0.0
23/01:30am 1.0 -1.1 -0.9 87 0.7 CALM 0 0 0 0 1026.6 1026.7 0.0
23/01:00am 1.9 -0.1 0.0 87 0.7 CALM 0 0 0 0 1026.6 1026.7 0.0
23/12:30am 2.1 -0.3 -0.2 85 0.8 S 2 7 1 4 1026.6 1026.7 0.0
23/12:00am 2.3 -0.5 -0.3 83 0.9 S 4 6 2 3 1026.5 1026.6 0.0
 
Date/Time
EST
Temp
°C
App
Temp
°C
Dew
Point
°C
Rel
Hum
%
Delta-T
°C
Wind Press
QNH
hPa
Press
MSL
hPa
Rain since
9am
mm
Dir  Spd
km/h
Gust
km/h
Spd
kts
Gust
kts
22/11:30pm 2.9 -0.4 -0.2 80 1.1 S 7 11 4 6 1026.7 1026.8 0.0
22/11:00pm 4.3 1.1 0.6 77 1.4 S 7 9 4 5 1026.7 1026.8 0.0
22/10:30pm 5.0 1.9 1.3 77 1.5 S 7 11 4 6 1026.7 1026.8 0.0
22/10:00pm 4.9 2.0 1.2 77 1.4 S 6 7 3 4 1026.7 1026.8 0.0
22/09:30pm 5.9 2.9 1.8 75 1.7 S 7 11 4 6 1026.6 1026.7 0.0
22/09:00pm 6.4 3.2 2.9 78 1.4 S 9 11 5 6 1026.4 1026.5 0.0
22/08:30pm 5.1 1.8 2.5 83 1.1 S 9 13 5 7 1026.4 1026.5 0.0
22/08:00pm 4.9 2.0 1.4 78 1.4 S 6 7 3 4 1026.4 1026.5 0.0
22/07:30pm 7.4 4.6 3.1 74 1.8 S 7 9 4 5 1026.4 1026.5 0.0
22/07:00pm 8.7 6.0 3.5 70 2.2 S 7 9 4 5 1026.1 1026.2 0.0
22/06:30pm 10.0 7.0 4.0 66 2.7 S 9 13 5 7 1025.9 1026.0 0.0
22/06:00pm 11.4 8.0 3.9 60 3.3 S 11 17 6 9 1025.6 1025.7 0.0
22/05:30pm 13.2 9.1 4.1 54 4.1 S 15 24 8 13 1025.2 1025.3 0.0
22/05:00pm 14.5 10.0 4.2 50 4.7 S 17 26 9 14 1024.9 1025.0 0.0
22/04:30pm 15.3 10.3 4.7 49 5.0 S 20 33 11 18 1024.5 1024.6 0.0
22/04:00pm 16.0 11.3 5.0 48 5.2 SSW 19 35 10 19 1024.3 1024.4 0.0
22/03:30pm 16.0 10.8 5.3 49 5.1 S 22 35 12 19 1024.1 1024.2 0.0
22/03:00pm 16.7 11.3 6.2 50 5.1 SSW 24 39 13 21 1023.8 1023.9 0.0
22/02:30pm 15.7 10.2 5.9 52 4.7 SSW 24 35 13 19 1024.1 1024.2 0.0
22/02:00pm 16.4 10.3 6.8 53 4.7 SW 28 39 15 21 1024.0 1024.1 0.0
22/01:30pm 16.1 9.9 6.3 52 4.8 SSW 28 39 15 21 1024.0 1024.1 0.0
22/01:00pm 15.8 11.2 6.5 54 4.5 SSW 20 32 11 17 1024.3 1024.4 0.0
22/12:30pm 15.4 10.0 6.4 55 4.4 SSW 24 33 13 18 1024.6 1024.7 0.0
22/12:00pm 15.2 9.0 6.2 55 4.3 SW 28 41 15 22 1024.8 1024.9 0.0
22/11:30am 13.9 9.7 7.4 65 3.2 SSW 19 32 10 17 1025.3 1025.4 0.0
22/11:00am 13.8 9.6 8.2 69 2.8 SW 20 32 11 17 1025.2 1025.3 0.0
22/10:30am 12.4 7.4 7.9 74 2.2 SW 24 32 13 17 1025.2 1025.3 0.0
22/10:00am 12.2 6.0 7.7 74 2.2 SW 30 39 16 21 1024.7 1024.8 0.0
22/09:30am 12.1 6.3 8.0 76 2.0 SW 28 41 15 22 1024.5 1024.6 0.0
22/09:00am 11.4 6.1 8.6 83 1.4 WSW 26 37 14 20 1024.5 1024.6 0.0
22/08:30am 10.4 5.4 8.2 86 1.1 SW 24 33 13 18 1024.1 1024.2 0.0
22/08:00am 9.9 4.5 8.2 89 0.8 WSW 26 33 14 18 1023.6 1023.7 0.0
22/07:30am 8.9 3.8 7.5 91 0.7 WSW 24 32 13 17 1023.4 1023.5 0.0
22/07:00am 8.7 3.9 7.3 91 0.7 WSW 22 30 12 16 1023.1 1023.2 0.0
22/06:30am 9.1 3.9 7.4 89 0.8 WSW 24 33 13 18 1022.7 1022.8 0.0
22/06:00am 9.3 3.4 7.4 88 0.9 WSW 28 37 15 20 1022.7 1022.8 0.0
22/05:30am 9.7 4.9 7.5 86 1.1 WSW 22 28 12 15 1022.7 1022.8 0.0
22/05:00am 9.8 4.0 7.9 88 0.9 WSW 28 39 15 21 1022.4 1022.5 0.0
22/04:30am 9.5 4.1 8.1 91 0.7 WSW 26 37 14 20 1022.2 1022.3 0.0
22/04:00am 9.3 3.5 7.9 91 0.7 WSW 28 35 15 19 1022.2 1022.3 0.0
22/03:30am 9.7 3.2 8.3 91 0.7 WSW 32 43 17 23 1022.2 1022.3 0.0
22/03:00am 9.7 3.2 8.3 91 0.7 WSW 32 39 17 21 1022.6 1022.7 0.0
22/02:30am 9.4 3.6 8.0 91 0.7 WSW 28 41 15 22 1023.0 1023.1 0.0
22/02:00am 9.7 3.2 8.3 91 0.7 WSW 32 41 17 22 1022.7 1022.8 0.0
22/01:30am 9.6 4.7 8.5 93 0.5 W 24 32 13 17 1022.8 1022.9 0.0
22/01:00am 9.6 4.3 8.4 92 0.6 W 26 33 14 18 1022.6 1022.7 0.0
22/12:30am 9.7 4.4 8.3 91 0.7 W 26 33 14 18 1022.6 1022.7 0.0
22/12:00am 10.0 5.1 8.4 90 0.8 W 24 33 13 18 1022.9 1023.0 0.0
 
Date/Time
EST
Temp
°C
App
Temp
°C
Dew
Point
°C
Rel
Hum
%
Delta-T
°C
Wind Press
QNH
hPa
Press
MSL
hPa
Rain since
9am
mm
Dir  Spd
km/h
Gust
km/h
Spd
kts
Gust
kts
21/11:30pm 10.5 4.9 8.6 88 0.9 W 28 35 15 19 1023.1 1023.2 0.0
21/11:00pm 10.8 5.6 8.7 87 1.0 WSW 26 32 14 17 1023.5 1023.6 0.0
21/10:30pm 11.5 5.9 8.7 83 1.4 WSW 28 35 15 19 1023.2 1023.3 0.0
21/10:00pm 11.9 6.7 8.9 82 1.5 WSW 26 33 14 18 1023.4 1023.5 0.0
21/09:30pm 12.0 6.8 8.8 81 1.6 WSW 26 35 14 19 1023.7 1023.8 0.0
21/09:00pm 11.7 7.2 8.7 82 1.5 WSW 22 28 12 15 1023.6 1023.7 0.0
21/08:30pm 11.7 6.8 8.6 81 1.5 WSW 24 30 13 16 1023.2 1023.3 0.0
21/08:00pm 12.2 7.4 8.7 79 1.7 WSW 24 32 13 17 1023.3 1023.4 0.0
21/07:30pm 12.7 8.2 8.6 76 2.1 WSW 22 33 12 18 1023.1 1023.2 0.0
21/07:00pm 13.6 7.9 8.4 71 2.6 WSW 28 37 15 20 1022.8 1022.9 0.0
21/06:30pm 14.0 9.3 9.2 73 2.5 WSW 24 32 13 17 1022.8 1022.9 0.0
21/06:00pm 14.6 10.0 8.3 66 3.2 WSW 22 32 12 17 1022.6 1022.7 0.0
21/05:30pm 15.1 8.5 7.9 62 3.6 WSW 32 43 17 23 1022.4 1022.5 0.0
21/05:00pm 15.3 8.2 8.1 62 3.6 WSW 35 46 19 25 1022.1 1022.2 0.0
21/04:30pm 15.9 9.3 8.4 61 3.8 WSW 33 44 18 24 1022.0 1022.1 0.0
21/04:00pm 16.8 10.4 9.2 61 3.9 WSW 33 46 18 25 1022.1 1022.2 0.0
21/03:30pm 15.7 9.7 8.7 63 3.6 WSW 30 39 16 21 1022.3 1022.4 0.0
21/03:00pm 16.1 9.7 9.3 64 3.5 WSW 33 44 18 24 1022.5 1022.6 0.0
21/02:30pm 16.4 9.3 8.1 58 4.2 WSW 35 54 19 29 1022.5 1022.6 0.0
21/02:29pm 16.6 9.6 8.6 59 4.1 WSW 35 54 19 29 1022.4 1022.5 0.0
21/02:00pm 14.9 10.0 10.1 73 2.5 WSW 26 39 14 21 1022.7 1022.8 0.0
21/01:30pm 15.8 9.6 9.2 65 3.4 WSW 32 39 17 21 1022.9 1023.0 0.0
21/01:00pm 15.4 8.9 9.1 66 3.2 WSW 33 43 18 23 1023.2 1023.3 0.0
21/12:30pm 15.5 8.6 8.7 64 3.5 WSW 35 46 19 25 1023.5 1023.6 0.0
21/12:00pm 15.0 8.6 9.4 69 2.9 WSW 33 43 18 23 1023.9 1024.0 0.0
21/11:30am 14.6 8.7 9.0 69 2.9 WSW 30 37 16 20 1024.2 1024.3 0.0
21/11:00am 14.2 8.7 9.0 71 2.6 SW 28 41 15 22 1024.5 1024.6 0.0
21/10:30am 13.7 7.5 9.4 75 2.2 WSW 32 43 17 23 1024.4 1024.5 0.0
21/10:00am 13.1 8.1 9.5 79 1.8 WSW 26 33 14 18 1024.4 1024.5 0.0
21/09:53am 13.1 6.9 9.5 79 1.8 WSW 32 44 17 24 1024.4 1024.5 0.0
21/09:30am 12.5 7.1 9.5 82 1.5 WSW 28 35 15 19 1024.4 1024.5 0.0
21/09:00am 12.1 6.7 9.5 84 1.3 WSW 28 39 15 21 1024.2 1024.3 0.0
21/08:30am 11.8 6.0 9.4 85 1.2 W 30 37 16 20 1023.9 1024.0 0.0

Other formats

Comma delimited format used in spreadsheet applications
http://www.bom.gov.au/fwo/IDV60801/IDV60801.94843.axf

JavaScript Object Notation format (JSON) in row-major order
http://www.bom.gov.au/fwo/IDV60801/IDV60801.94843.json

Data quality

Most of these data are generated automatically and are frequently updated. Quality checks on data are not normally performed. It is possible for incorrect values to appear. Refer to information at About Latest Weather Observations and please check the disclaimer before using these data.